Surgut, Russia
Current Conditions -  °F | °C
As of 5:30 PM on Friday 24 Oct 2014 (Local Time) from USRR Reporting Station
Blowing Snow Blowing Snow  
Wind Chill: -7°   Ceiling: 4600
Heat Index: 12°   Visibility: 4mi
Dew Point:   Wind: 22mph
Humidity: 73%   Direction: 90°E
Pressure: 29.88"   Gusts: 29mph
Location:  61.25°N, 73.42°E
Report Text: USRR 241230Z 09010G13MPS 7000 DRSN BKN046 M11/M15 Q1012 TEMPO2000 SHSN BLSN RMK QFE754 07////60
Loading
Personal Weather Stations






























Interactive Weather Map
Tropical Storm Tracking
New forecast layout! Learn more

10-Day Weather Forecast

Advertisements
Track Severe Weather on mobile